Time;durP1;ratioP1;P1;durP2;ratioP2;P2;SDS_P1;SDS_P2;PMS_P1;PMS_P2;Temp;Humidity;BMP_temperature;BMP_pressure;BME280_temperature;BME280_humidity;BME280_pressure;Samples;Min_cycle;Max_cycle;Signal;HPM_P1;HPM_P2
2021/09/20 00:01:42;;;;;;;5.32;3.80;;;15.40;99.90;;;;;;4975091;28;20231;-74
2021/09/20 00:04:09;;;;;;;6.25;4.28;;;15.50;99.90;;;;;;4975621;28;20243;-74
2021/09/20 00:06:35;;;;;;;6.15;4.10;;;15.30;99.90;;;;;;4975410;28;20211;-74
2021/09/20 00:09:02;;;;;;;6.55;4.25;;;15.20;99.90;;;;;;4975246;28;20203;-74
2021/09/20 00:11:29;;;;;;;6.97;4.00;;;15.20;99.90;;;;;;4975072;28;20231;-74
2021/09/20 00:13:56;;;;;;;4.45;3.80;;;15.40;99.90;;;;;;4974916;28;20239;-74
2021/09/20 00:16:23;;;;;;;5.13;4.03;;;15.40;99.90;;;;;;4975043;28;20292;-74
2021/09/20 00:18:51;;;;;;;5.30;3.70;;;15.50;99.90;;;;;;4975128;28;20299;-74
2021/09/20 00:21:18;;;;;;;4.72;3.50;;;15.50;99.90;;;;;;4974888;28;20337;-74
2021/09/20 00:23:45;;;;;;;4.65;3.55;;;15.50;99.90;;;;;;4974906;28;20236;-74
2021/09/20 00:26:11;;;;;;;5.18;3.45;;;15.40;99.90;;;;;;4975040;28;20303;-74
2021/09/20 00:28:39;;;;;;;5.38;4.00;;;15.30;99.90;;;;;;4975036;28;20258;-74
2021/09/20 00:31:06;;;;;;;6.10;4.35;;;15.40;99.90;;;;;;4974681;28;20295;-73
2021/09/20 00:33:33;;;;;;;4.28;3.65;;;15.30;99.90;;;;;;4974519;28;20251;-74
2021/09/20 00:36:01;;;;;;;5.45;4.07;;;15.30;99.90;;;;;;4974664;28;20303;-74
2021/09/20 00:38:28;;;;;;;5.55;3.80;;;15.20;99.90;;;;;;4974916;28;20220;-73
2021/09/20 00:40:55;;;;;;;4.05;3.33;;;15.20;99.90;;;;;;4974836;28;20299;-74
2021/09/20 00:43:22;;;;;;;5.75;4.55;;;15.30;99.90;;;;;;4974406;28;20602;-74
2021/09/20 00:45:49;;;;;;;5.50;4.38;;;15.30;99.90;;;;;;4974874;28;20222;-74
2021/09/20 00:48:16;;;;;;;5.63;4.15;;;15.20;99.90;;;;;;4974818;28;20217;-74
2021/09/20 00:50:43;;;;;;;4.47;3.95;;;15.20;99.90;;;;;;4974657;28;20683;-75
2021/09/20 00:53:11;;;;;;;6.40;4.30;;;15.10;99.90;;;;;;4974270;28;20298;-74
2021/09/20 00:55:40;;;;;;;5.45;4.25;;;15.00;99.90;;;;;;4974810;28;20212;-74
2021/09/20 00:58:08;;;;;;;6.07;4.50;;;15.00;99.90;;;;;;4974985;28;20203;-74
2021/09/20 01:00:35;;;;;;;5.32;3.88;;;15.10;99.90;;;;;;4974631;28;20219;-74
2021/09/20 01:03:02;;;;;;;4.50;3.50;;;15.20;99.90;;;;;;4974384;28;20239;-74
2021/09/20 01:05:28;;;;;;;4.43;3.65;;;15.40;99.90;;;;;;4974702;28;20676;-73
2021/09/20 01:07:55;;;;;;;4.32;3.88;;;15.50;99.90;;;;;;4974686;28;20628;-75
2021/09/20 01:10:23;;;;;;;5.55;3.88;;;15.60;99.90;;;;;;4974446;28;20208;-74
2021/09/20 01:12:51;;;;;;;4.70;3.60;;;15.70;99.90;;;;;;4974298;28;20678;-74
2021/09/20 01:15:18;;;;;;;5.60;3.95;;;15.70;99.90;;;;;;4974609;28;20232;-74
2021/09/20 01:17:45;;;;;;;7.07;4.35;;;15.80;99.90;;;;;;4974497;28;20664;-74
2021/09/20 01:20:13;;;;;;;7.68;3.80;;;15.60;99.90;;;;;;4974553;28;20209;-74
2021/09/20 01:22:41;;;;;;;6.55;4.45;;;15.50;99.90;;;;;;4974283;28;20229;-74
2021/09/20 01:25:11;;;;;;;5.00;3.80;;;15.40;99.90;;;;;;4974497;28;20229;-74
2021/09/20 01:27:38;;;;;;;4.68;3.20;;;15.40;99.90;;;;;;4974465;28;20208;-74
2021/09/20 01:30:07;;;;;;;4.30;3.85;;;15.40;99.90;;;;;;4974462;28;20210;-74
2021/09/20 01:32:33;;;;;;;5.25;3.92;;;15.30;99.90;;;;;;4973842;28;20616;-74
2021/09/20 01:35:00;;;;;;;4.30;3.75;;;15.30;99.90;;;;;;4974385;28;20591;-74
2021/09/20 01:37:27;;;;;;;5.70;4.07;;;15.20;99.90;;;;;;4974396;28;20210;-74
2021/09/20 01:39:54;;;;;;;5.00;4.30;;;15.10;99.90;;;;;;4974217;28;20205;-74
2021/09/20 01:42:22;;;;;;;4.65;3.60;;;15.10;99.90;;;;;;4973939;28;20226;-74
2021/09/20 01:44:49;;;;;;;5.85;4.45;;;15.00;99.90;;;;;;4973968;28;20751;-74
2021/09/20 01:47:16;;;;;;;5.13;4.25;;;15.00;99.90;;;;;;4974317;28;20208;-74
2021/09/20 01:49:43;;;;;;;5.85;4.40;;;14.90;99.90;;;;;;4974273;28;20315;-74
2021/09/20 01:52:10;;;;;;;5.13;4.13;;;14.90;99.90;;;;;;4973948;28;20251;-73
2021/09/20 01:54:37;;;;;;;5.47;4.28;;;14.80;99.90;;;;;;4976045;28;20249;-74
2021/09/20 01:57:04;;;;;;;4.65;4.15;;;14.90;99.90;;;;;;4977684;28;20295;-74
2021/09/20 01:59:32;;;;;;;5.55;3.70;;;14.90;99.90;;;;;;4977551;28;20262;-74
2021/09/20 02:01:59;;;;;;;4.85;4.35;;;14.80;99.90;;;;;;4977105;28;20721;-74
2021/09/20 02:04:26;;;;;;;4.95;4.15;;;14.80;99.90;;;;;;4977565;28;20319;-74
2021/09/20 02:06:53;;;;;;;5.82;4.13;;;14.80;99.90;;;;;;4977342;28;20299;-74
2021/09/20 02:09:20;;;;;;;7.60;4.35;;;14.80;99.90;;;;;;4977447;28;20303;-74
2021/09/20 02:11:47;;;;;;;5.85;4.10;;;14.80;99.90;;;;;;4977219;28;20596;-74
2021/09/20 02:14:13;;;;;;;5.82;4.00;;;15.00;99.90;;;;;;4977306;28;20316;-74
2021/09/20 02:16:42;;;;;;;5.43;3.95;;;15.00;99.90;;;;;;4977357;28;20307;-74
2021/09/20 02:19:09;;;;;;;5.38;4.07;;;15.10;99.90;;;;;;4977307;28;20213;-74
2021/09/20 02:21:36;;;;;;;5.60;4.45;;;15.00;99.90;;;;;;4976970;28;20208;-74
2021/09/20 02:24:03;;;;;;;9.38;4.57;;;15.00;99.90;;;;;;4977088;28;20622;-74
2021/09/20 02:26:30;;;;;;;5.15;3.92;;;14.90;99.90;;;;;;4977156;28;20572;-73
2021/09/20 02:28:57;;;;;;;5.32;4.30;;;14.90;99.90;;;;;;4977153;28;20210;-74
2021/09/20 02:31:24;;;;;;;5.32;4.40;;;14.80;99.90;;;;;;4976866;28;20730;-74
2021/09/20 02:33:52;;;;;;;6.22;4.63;;;14.80;99.90;;;;;;4976669;28;20238;-74
2021/09/20 02:36:20;;;;;;;7.57;4.40;;;14.90;99.90;;;;;;4976726;28;20228;-74
2021/09/20 02:38:47;;;;;;;6.60;4.32;;;15.00;99.90;;;;;;4976948;28;20208;-74
2021/09/20 02:41:15;;;;;;;5.68;3.78;;;15.20;99.90;;;;;;4976673;28;20208;-73
2021/09/20 02:43:42;;;;;;;6.70;4.30;;;15.30;99.90;;;;;;4976771;28;20247;-74
2021/09/20 02:46:09;;;;;;;5.30;3.70;;;15.30;99.90;;;;;;4976783;28;20308;-74
2021/09/20 02:48:35;;;;;;;4.57;3.75;;;15.30;99.90;;;;;;4976665;28;20205;-74
2021/09/20 02:51:04;;;;;;;6.40;4.50;;;15.40;99.90;;;;;;4976558;28;20216;-74
2021/09/20 02:53:32;;;;;;;5.63;4.07;;;15.30;99.90;;;;;;4976648;28;20221;-74
2021/09/20 02:55:59;;;;;;;5.65;4.43;;;15.20;99.90;;;;;;4976415;28;20207;-74
2021/09/20 02:58:25;;;;;;;5.70;4.35;;;15.30;99.90;;;;;;4976410;28;20694;-74
2021/09/20 03:00:52;;;;;;;5.07;4.20;;;15.30;99.90;;;;;;4976387;28;20299;-74
2021/09/20 03:03:19;;;;;;;5.05;4.32;;;15.30;99.90;;;;;;4976206;28;20236;-74
2021/09/20 03:05:46;;;;;;;5.13;3.88;;;15.30;99.90;;;;;;4976497;28;20627;-74
2021/09/20 03:08:14;;;;;;;5.22;4.25;;;15.30;99.90;;;;;;4976362;28;20215;-74
2021/09/20 03:10:41;;;;;;;5.68;4.18;;;15.20;99.90;;;;;;4976370;28;20296;-74
2021/09/20 03:13:08;;;;;;;5.25;3.95;;;15.30;99.90;;;;;;4976107;28;20291;-74
2021/09/20 03:15:35;;;;;;;5.40;3.53;;;15.20;99.90;;;;;;4976055;28;20212;-74
2021/09/20 03:18:02;;;;;;;5.47;4.45;;;15.10;99.90;;;;;;4976209;28;20300;-74
2021/09/20 03:20:29;;;;;;;5.25;4.35;;;15.00;99.90;;;;;;4976212;28;20307;-74
2021/09/20 03:22:56;;;;;;;5.78;4.43;;;15.00;99.90;;;;;;4975663;28;20239;-74
2021/09/20 03:25:24;;;;;;;6.25;3.97;;;15.10;99.90;;;;;;4976145;28;20265;-74
2021/09/20 03:27:51;;;;;;;4.95;3.95;;;15.10;99.90;;;;;;4976056;28;20291;-74
2021/09/20 03:30:19;;;;;;;6.25;3.95;;;15.10;99.90;;;;;;4975849;28;20687;-74
2021/09/20 03:32:46;;;;;;;6.25;4.20;;;15.10;99.90;;;;;;4975503;28;20679;-74
2021/09/20 03:35:15;;;;;;;6.45;4.00;;;15.20;99.90;;;;;;4975930;28;20229;-74
2021/09/20 03:37:43;;;;;;;7.30;4.22;;;15.20;99.90;;;;;;4975878;28;20212;-74
2021/09/20 03:40:11;;;;;;;6.40;4.15;;;15.10;99.90;;;;;;4975846;28;20604;-74
2021/09/20 03:42:40;;;;;;;5.25;4.55;;;15.00;99.90;;;;;;4975500;28;20317;-74
2021/09/20 03:45:07;;;;;;;5.45;4.35;;;14.80;99.90;;;;;;4975733;28;20317;-74
2021/09/20 03:47:34;;;;;;;6.50;4.18;;;14.70;99.90;;;;;;4975716;28;20573;-74
2021/09/20 03:50:01;;;;;;;5.45;3.58;;;14.70;99.90;;;;;;4975342;28;20207;-73
2021/09/20 03:52:28;;;;;;;5.53;3.80;;;14.80;99.90;;;;;;4975383;28;20290;-74
2021/09/20 03:54:55;;;;;;;4.78;3.78;;;14.90;99.90;;;;;;4976009;28;20314;-74
2021/09/20 03:57:21;;;;;;;6.65;4.38;;;14.90;99.90;;;;;;4975390;28;20219;-74
2021/09/20 03:59:50;;;;;;;8.30;4.65;;;14.90;99.90;;;;;;4975332;28;20212;-74
2021/09/20 04:02:16;;;;;;;5.45;4.20;;;14.80;99.90;;;;;;4974987;28;20315;-74
2021/09/20 04:04:43;;;;;;;5.75;4.05;;;14.80;99.90;;;;;;4975098;28;20714;-74
2021/09/20 04:07:12;;;;;;;5.82;4.18;;;14.70;99.90;;;;;;4975359;28;20208;-74
2021/09/20 04:09:41;;;;;;;5.38;4.05;;;14.60;99.90;;;;;;4975348;28;20635;-74
2021/09/20 04:12:09;;;;;;;6.50;4.60;;;14.60;99.90;;;;;;4975029;28;20617;-74
2021/09/20 04:14:36;;;;;;;4.53;3.85;;;14.70;99.90;;;;;;4975191;28;20265;-74
2021/09/20 04:17:05;;;;;;;6.00;4.47;;;14.70;99.90;;;;;;4974458;28;20211;-74
2021/09/20 04:19:32;;;;;;;5.40;4.30;;;14.70;99.90;;;;;;4975192;28;20211;-74
2021/09/20 04:21:59;;;;;;;4.20;3.75;;;14.80;99.90;;;;;;4974999;28;20302;-74
2021/09/20 04:24:26;;;;;;;5.85;4.30;;;14.90;99.90;;;;;;4974726;28;20233;-74
2021/09/20 04:26:52;;;;;;;5.90;4.55;;;15.00;99.90;;;;;;4975108;28;20205;-74
2021/09/20 04:29:19;;;;;;;5.68;3.95;;;15.20;99.90;;;;;;4975216;28;20208;-74
2021/09/20 04:31:46;;;;;;;4.57;3.50;;;15.20;99.90;;;;;;4974770;28;20296;-73
2021/09/20 04:34:14;;;;;;;5.18;3.78;;;15.10;99.90;;;;;;4974863;28;20236;-74
2021/09/20 04:36:41;;;;;;;5.68;4.25;;;15.10;99.90;;;;;;4974903;28;20303;-74
2021/09/20 04:39:08;;;;;;;7.07;4.32;;;15.20;99.90;;;;;;4974799;28;20208;-74
2021/09/20 04:41:35;;;;;;;5.20;4.15;;;15.10;99.90;;;;;;4974685;28;20215;-74
2021/09/20 04:44:02;;;;;;;5.50;4.10;;;15.00;99.90;;;;;;4974793;28;20239;-74
2021/09/20 04:46:29;;;;;;;5.50;3.95;;;14.90;99.90;;;;;;4974561;28;20302;-74
2021/09/20 04:48:55;;;;;;;6.53;4.63;;;14.80;99.90;;;;;;4974798;28;20219;-74
2021/09/20 04:51:24;;;;;;;5.07;4.50;;;14.80;99.90;;;;;;4974348;28;20207;-73
2021/09/20 04:53:50;;;;;;;8.38;4.90;;;14.70;99.90;;;;;;4974425;28;20313;-74
2021/09/20 04:56:17;;;;;;;5.47;3.83;;;14.80;99.90;;;;;;4974546;28;20667;-74
2021/09/20 04:58:44;;;;;;;5.20;4.05;;;14.90;99.90;;;;;;4974725;28;20603;-74
2021/09/20 05:01:11;;;;;;;6.40;4.28;;;14.80;99.90;;;;;;4974558;28;20294;-73
2021/09/20 05:03:38;;;;;;;5.68;4.45;;;14.90;99.90;;;;;;4974562;28;20243;-74
2021/09/20 05:06:05;;;;;;;4.30;3.90;;;15.00;99.90;;;;;;4974418;28;20674;-74
2021/09/20 05:08:33;;;;;;;4.82;3.72;;;14.90;99.90;;;;;;4974657;28;20234;-74
2021/09/20 05:11:00;;;;;;;6.47;4.60;;;14.80;99.90;;;;;;4974450;28;20223;-75
2021/09/20 05:13:27;;;;;;;5.85;4.53;;;14.90;99.90;;;;;;4974318;28;20318;-74
2021/09/20 05:15:54;;;;;;;8.52;3.88;;;15.00;99.90;;;;;;4974372;28;20208;-74
2021/09/20 05:18:21;;;;;;;7.78;4.60;;;15.00;99.90;;;;;;4974555;28;20557;-74
2021/09/20 05:20:48;;;;;;;6.03;4.25;;;15.00;99.90;;;;;;4974562;28;20209;-74
2021/09/20 05:23:15;;;;;;;5.85;4.43;;;15.00;99.90;;;;;;4974194;28;20318;-74
2021/09/20 05:25:44;;;;;;;6.07;5.13;;;15.00;99.90;;;;;;4974513;28;20630;-73
2021/09/20 05:28:10;;;;;;;5.65;4.65;;;15.10;99.90;;;;;;4974297;28;20209;-74
2021/09/20 05:30:38;;;;;;;7.53;4.85;;;15.10;99.90;;;;;;4978242;28;20209;-74
2021/09/20 05:33:05;;;;;;;4.75;3.92;;;15.00;99.90;;;;;;4977560;28;20307;-74
2021/09/20 05:35:31;;;;;;;7.13;4.18;;;15.00;99.90;;;;;;4977875;28;20212;-74
2021/09/20 05:37:58;;;;;;;4.78;3.58;;;15.00;99.90;;;;;;4978091;28;20204;-74
2021/09/20 05:40:25;;;;;;;5.95;4.45;;;15.00;99.90;;;;;;4977966;28;20304;-74
2021/09/20 05:42:56;;;;;;;5.47;4.22;;;15.10;99.90;;;;;;4977812;28;20225;-74
2021/09/20 05:45:24;;;;;;;5.90;4.57;;;15.10;99.90;;;;;;4977966;28;20224;-74
2021/09/20 05:47:51;;;;;;;6.28;4.43;;;15.20;99.90;;;;;;4977914;28;20564;-74
2021/09/20 05:50:19;;;;;;;6.07;3.95;;;15.30;99.90;;;;;;4977904;28;20608;-74
2021/09/20 05:52:46;;;;;;;6.22;4.70;;;15.30;99.90;;;;;;4977367;28;20209;-74
2021/09/20 05:55:13;;;;;;;7.43;4.30;;;15.30;99.90;;;;;;4977729;28;20232;-74
2021/09/20 05:57:41;;;;;;;6.82;4.50;;;15.20;99.90;;;;;;4977734;28;20303;-74
2021/09/20 06:00:11;;;;;;;5.85;3.90;;;15.20;99.90;;;;;;4977696;28;20216;-74
2021/09/20 06:02:38;;;;;;;6.97;4.20;;;15.10;99.90;;;;;;4977424;28;20292;-74
2021/09/20 06:05:06;;;;;;;4.97;4.40;;;15.20;99.90;;;;;;4977558;28;20235;-74
2021/09/20 06:07:33;;;;;;;6.43;4.07;;;15.20;99.90;;;;;;4977473;28;20213;-74
2021/09/20 06:10:00;;;;;;;6.35;4.85;;;15.10;99.90;;;;;;4977485;28;20212;-74
2021/09/20 06:12:27;;;;;;;6.13;4.47;;;15.20;99.90;;;;;;4977122;28;20300;-74
2021/09/20 06:14:54;;;;;;;5.75;4.55;;;15.20;99.90;;;;;;4977425;28;20248;-74
2021/09/20 06:17:22;;;;;;;7.85;4.80;;;15.20;99.90;;;;;;4977391;28;20210;-74
2021/09/20 06:19:49;;;;;;;10.20;5.30;;;15.20;99.90;;;;;;4977268;28;20292;-74
2021/09/20 06:22:16;;;;;;;5.25;4.53;;;15.30;99.90;;;;;;4977153;28;20209;-74
2021/09/20 06:24:43;;;;;;;6.72;4.70;;;15.30;99.90;;;;;;4977152;28;20246;-74
2021/09/20 06:27:10;;;;;;;8.40;4.72;;;15.30;99.90;;;;;;4977071;28;20210;-74
2021/09/20 06:29:37;;;;;;;6.75;5.20;;;15.40;99.90;;;;;;4977126;28;20209;-74
2021/09/20 06:32:04;;;;;;;7.32;5.50;;;15.50;99.90;;;;;;4976767;28;20299;-74
2021/09/20 06:34:33;;;;;;;6.75;4.95;;;15.50;99.90;;;;;;4976865;28;20606;-74
2021/09/20 06:37:00;;;;;;;7.47;4.88;;;15.60;99.90;;;;;;4977064;28;20316;-74
2021/09/20 06:39:27;;;;;;;6.18;4.55;;;15.60;99.90;;;;;;4976637;28;20409;-74
2021/09/20 06:41:54;;;;;;;5.95;4.13;;;15.70;99.90;;;;;;4976707;28;20213;-74
2021/09/20 06:44:21;;;;;;;6.28;4.95;;;15.80;99.90;;;;;;4976999;28;20603;-73
2021/09/20 06:46:48;;;;;;;8.80;5.68;;;15.70;99.90;;;;;;4976897;28;20219;-74
2021/09/20 06:49:15;;;;;;;5.57;4.35;;;15.80;99.90;;;;;;4976767;28;20213;-74
2021/09/20 06:51:44;;;;;;;7.45;5.40;;;15.80;99.90;;;;;;4976642;28;20209;-74
2021/09/20 06:54:11;;;;;;;7.35;5.18;;;15.80;99.90;;;;;;4976733;28;20229;-74
2021/09/20 06:56:38;;;;;;;7.82;4.78;;;15.60;99.90;;;;;;4976710;28;20205;-74
2021/09/20 06:59:05;;;;;;;6.95;5.25;;;15.60;99.90;;;;;;4976917;28;20248;-74
2021/09/20 07:01:32;;;;;;;7.97;5.15;;;15.60;99.90;;;;;;4976259;28;20675;-74
2021/09/20 07:03:59;;;;;;;6.32;4.88;;;15.70;99.90;;;;;;4976507;28;20249;-74
2021/09/20 07:06:26;;;;;;;6.50;4.93;;;15.80;99.90;;;;;;4976561;28;20738;-74
2021/09/20 07:08:54;;;;;;;7.10;5.47;;;15.80;99.90;;;;;;4976459;28;20308;-74
2021/09/20 07:11:21;;;;;;;6.35;4.90;;;15.90;99.90;;;;;;4976485;28;20224;-74
2021/09/20 07:13:48;;;;;;;7.93;5.80;;;15.90;99.90;;;;;;4976123;28;20716;-74
2021/09/20 07:16:15;;;;;;;6.35;4.88;;;16.00;99.90;;;;;;4976298;28;20216;-74
2021/09/20 07:18:42;;;;;;;6.88;4.80;;;16.00;99.90;;;;;;4976261;28;20305;-74
2021/09/20 07:21:09;;;;;;;6.50;5.30;;;16.00;99.90;;;;;;4976042;28;20216;-74
2021/09/20 07:23:36;;;;;;;7.57;5.13;;;15.90;99.90;;;;;;4976011;28;20588;-74
2021/09/20 07:26:04;;;;;;;7.15;4.88;;;15.70;99.90;;;;;;4976200;28;20304;-74
2021/09/20 07:28:31;;;;;;;8.00;4.97;;;15.80;99.90;;;;;;4976035;28;20304;-75
2021/09/20 07:30:58;;;;;;;7.85;5.15;;;15.80;99.90;;;;;;4975961;28;20206;-73
2021/09/20 07:33:24;;;;;;;6.80;5.15;;;15.80;99.90;;;;;;4975740;28;20348;-74
2021/09/20 07:35:51;;;;;;;7.07;5.13;;;15.80;99.90;;;;;;4975692;28;20217;-74
2021/09/20 07:38:18;;;;;;;7.13;4.88;;;15.80;99.90;;;;;;4975903;28;20241;-74
2021/09/20 07:40:45;;;;;;;8.93;5.28;;;15.90;99.90;;;;;;4975860;28;20212;-74
2021/09/20 07:43:13;;;;;;;8.40;5.90;;;15.90;99.90;;;;;;4975473;28;20235;-74
2021/09/20 07:45:40;;;;;;;6.13;5.13;;;15.90;99.90;;;;;;4975800;28;20296;-74
2021/09/20 07:48:07;;;;;;;8.68;5.50;;;16.00;99.90;;;;;;4975722;28;20209;-74
2021/09/20 07:50:34;;;;;;;7.10;4.80;;;16.00;99.90;;;;;;4975550;28;20211;-74
2021/09/20 07:53:01;;;;;;;9.13;6.20;;;16.20;99.90;;;;;;4974851;28;20300;-74
2021/09/20 07:55:34;;;;;;;7.90;5.25;;;16.10;99.90;;;;;;4975649;28;20209;-74
2021/09/20 07:58:01;;;;;;;6.10;5.00;;;16.30;99.90;;;;;;4975849;28;20201;-74
2021/09/20 08:00:29;;;;;;;9.43;5.82;;;16.40;99.90;;;;;;4975574;28;20307;-74
2021/09/20 08:02:56;;;;;;;8.20;5.65;;;16.40;99.90;;;;;;4975176;28;20668;-74
2021/09/20 08:05:23;;;;;;;9.93;6.25;;;16.50;99.90;;;;;;4975374;28;20230;-74
2021/09/20 08:07:50;;;;;;;6.53;4.93;;;16.50;99.90;;;;;;4975388;28;20208;-74
2021/09/20 08:10:17;;;;;;;8.10;5.72;;;16.50;99.90;;;;;;4975309;28;20301;-74
2021/09/20 08:12:44;;;;;;;10.73;6.50;;;16.50;99.90;;;;;;4975167;28;20206;-74
2021/09/20 08:15:12;;;;;;;8.48;5.97;;;16.50;99.90;;;;;;4975271;28;20576;-74
2021/09/20 08:17:40;;;;;;;9.07;6.28;;;16.40;99.90;;;;;;4975062;28;20683;-74
2021/09/20 08:20:09;;;;;;;8.60;6.35;;;16.30;99.90;;;;;;4975220;28;20293;-74
2021/09/20 08:22:36;;;;;;;7.80;5.35;;;16.30;99.90;;;;;;4974852;28;20382;-74
2021/09/20 08:25:04;;;;;;;8.25;5.95;;;16.40;99.90;;;;;;4975015;28;20232;-74
2021/09/20 08:27:31;;;;;;;9.73;5.80;;;16.60;99.90;;;;;;4975169;28;20214;-74
2021/09/20 08:29:58;;;;;;;9.85;5.93;;;16.70;99.90;;;;;;4975122;28;20212;-74
2021/09/20 08:32:25;;;;;;;8.77;6.78;;;16.90;99.90;;;;;;4974758;28;20214;-74
2021/09/20 08:34:53;;;;;;;10.77;6.40;;;17.00;99.90;;;;;;4975169;28;20288;-74
2021/09/20 08:37:20;;;;;;;8.45;6.03;;;17.10;99.90;;;;;;4974938;28;20210;-74
2021/09/20 08:39:48;;;;;;;7.88;5.85;;;17.20;99.90;;;;;;4974926;28;20305;-74
2021/09/20 08:42:16;;;;;;;9.32;6.55;;;17.20;99.90;;;;;;4974762;28;20571;-74
2021/09/20 08:44:43;;;;;;;9.43;5.85;;;17.20;99.90;;;;;;4974518;28;20241;-74
2021/09/20 08:47:13;;;;;;;14.45;7.32;;;17.20;99.90;;;;;;4974905;28;20304;-74
2021/09/20 08:49:40;;;;;;;9.00;6.40;;;17.10;99.90;;;;;;4975065;28;20206;-74
2021/09/20 08:52:09;;;;;;;10.65;6.85;;;17.20;99.90;;;;;;4974463;28;20205;-74
2021/09/20 08:54:36;;;;;;;9.75;6.47;;;17.30;99.90;;;;;;4974645;28;20224;-74
2021/09/20 08:57:03;;;;;;;10.55;7.10;;;17.40;99.90;;;;;;4974600;28;20214;-74
2021/09/20 08:59:30;;;;;;;10.50;7.22;;;17.50;99.90;;;;;;4974759;28;20212;-74
2021/09/20 09:01:57;;;;;;;11.57;7.35;;;17.50;99.90;;;;;;4974607;28;20207;-74
2021/09/20 09:04:28;;;;;;;10.32;7.00;;;17.60;99.90;;;;;;4978170;28;20222;-74
2021/09/20 09:07:00;;;;;;;12.52;7.70;;;17.60;99.90;;;;;;4978751;28;20313;-74
2021/09/20 09:09:31;;;;;;;9.98;6.78;;;17.60;99.90;;;;;;4978613;28;20210;-74
2021/09/20 09:12:17;;;;;;;12.70;7.40;;;17.70;99.90;;;;;;4978334;28;20214;-74
2021/09/20 09:14:46;;;;;;;13.05;7.15;;;17.60;99.90;;;;;;4978325;28;20656;-73
2021/09/20 09:17:17;;;;;;;10.75;7.85;;;17.50;99.90;;;;;;4978511;28;20208;-74
2021/09/20 09:19:51;;;;;;;10.35;7.18;;;17.30;99.90;;;;;;4978517;28;20209;-74
2021/09/20 09:22:18;;;;;;;10.07;7.15;;;17.40;99.90;;;;;;4978252;28;20293;-74
2021/09/20 09:25:01;;;;;;;12.10;7.60;;;17.50;99.90;;;;;;4977943;28;20317;-74
2021/09/20 09:27:29;;;;;;;9.30;6.50;;;17.50;99.90;;;;;;4978098;28;20587;-74
2021/09/20 09:30:10;;;;;;;8.15;6.28;;;17.50;99.90;;;;;;4978285;28;20209;-74
2021/09/20 09:32:38;;;;;;;10.60;8.18;;;17.40;99.90;;;;;;4977929;28;20224;-74
2021/09/20 09:35:08;;;;;;;10.45;6.40;;;17.30;99.90;;;;;;4978147;28;20222;-74
2021/09/20 09:37:36;;;;;;;11.63;6.78;;;17.40;99.90;;;;;;4978099;28;20273;-74
2021/09/20 09:40:20;;;;;;;11.32;7.30;;;17.30;99.90;;;;;;4978302;28;20220;-74
2021/09/20 09:42:49;;;;;;;10.38;7.45;;;17.40;99.90;;;;;;4977942;28;20292;-74
2021/09/20 09:45:25;;;;;;;11.50;7.78;;;17.40;99.90;;;;;;4977571;28;20241;-73
2021/09/20 09:48:10;;;;;;;11.50;7.32;;;17.40;99.90;;;;;;4977981;28;20613;-74
2021/09/20 09:50:46;;;;;;;10.43;7.22;;;17.60;99.90;;;;;;4978367;28;20212;-74
2021/09/20 09:53:29;;;;;;;10.68;7.55;;;17.60;99.90;;;;;;4977626;28;20221;-74
2021/09/20 09:55:58;;;;;;;11.50;7.50;;;17.50;99.90;;;;;;4977860;28;20285;-74
2021/09/20 09:58:26;;;;;;;9.90;6.72;;;17.50;99.90;;;;;;4977693;28;20244;-74
2021/09/20 10:01:08;;;;;;;11.30;7.15;;;17.50;99.90;;;;;;4977643;28;20217;-74
2021/09/20 10:03:35;;;;;;;11.45;7.90;;;17.60;99.90;;;;;;4977434;28;20230;-74
2021/09/20 10:06:01;;;;;;;11.25;7.80;;;17.50;99.90;;;;;;4977652;28;20226;-74
2021/09/20 10:08:28;;;;;;;12.90;8.27;;;17.20;99.90;;;;;;4977572;28;20216;-74
2021/09/20 10:10:57;;;;;;;9.77;7.55;;;17.10;99.90;;;;;;4977544;28;20297;-74
2021/09/20 10:13:25;;;;;;;12.23;8.60;;;17.10;99.90;;;;;;4977266;28;20238;-74
2021/09/20 10:15:53;;;;;;;10.80;7.47;;;17.10;99.90;;;;;;4976691;28;20261;-73
2021/09/20 10:18:20;;;;;;;10.80;8.60;;;17.10;99.90;;;;;;4977394;28;20210;-74
2021/09/20 10:20:47;;;;;;;10.35;7.78;;;17.00;99.90;;;;;;4977230;28;20300;-74
2021/09/20 10:23:14;;;;;;;12.02;7.90;;;17.00;99.90;;;;;;4977078;28;20206;-74
2021/09/20 10:25:42;;;;;;;11.15;8.55;;;17.10;99.90;;;;;;4977228;28;20317;-74
2021/09/20 10:28:12;;;;;;;12.10;7.60;;;17.20;99.90;;;;;;4977239;28;20202;-74
2021/09/20 10:30:42;;;;;;;12.70;8.23;;;17.00;99.90;;;;;;4977257;28;20206;-74
2021/09/20 10:33:10;;;;;;;13.07;8.55;;;17.10;99.90;;;;;;4976699;28;20209;-74
2021/09/20 10:35:38;;;;;;;11.27;8.40;;;17.20;99.90;;;;;;4976863;28;20678;-74
2021/09/20 10:38:29;;;;;;;10.05;7.85;;;17.20;99.90;;;;;;4977026;28;20206;-73
2021/09/20 10:41:13;;;;;;;11.15;8.50;;;17.10;99.90;;;;;;4976970;28;20210;-74
2021/09/20 10:43:43;;;;;;;13.77;8.30;;;17.20;99.90;;;;;;4976702;28;20230;-74
2021/09/20 10:46:21;;;;;;;15.77;10.18;;;17.10;99.90;;;;;;4976618;28;20714;-74
2021/09/20 10:48:50;;;;;;;15.30;10.05;;;16.90;99.90;;;;;;4976544;28;20680;-74
2021/09/20 10:51:30;;;;;;;11.82;8.20;;;16.80;99.90;;;;;;4976647;28;20309;-74
2021/09/20 10:54:21;;;;;;;13.25;8.90;;;16.90;99.90;;;;;;4976608;28;20241;-74
2021/09/20 10:56:51;;;;;;;12.73;9.57;;;17.10;99.90;;;;;;4976476;28;20277;-74
2021/09/20 10:59:30;;;;;;;12.75;8.93;;;17.30;99.90;;;;;;4976671;28;20206;-74
2021/09/20 11:01:59;;;;;;;15.18;9.00;;;17.40;99.90;;;;;;4976747;28;20216;-74
2021/09/20 11:04:30;;;;;;;10.98;8.02;;;17.60;99.90;;;;;;4976709;28;20232;-74
2021/09/20 11:07:15;;;;;;;12.25;8.70;;;17.70;99.90;;;;;;4976469;28;20660;-74
2021/09/20 11:09:46;;;;;;;11.95;8.68;;;17.90;99.90;;;;;;4976500;28;20190;-74
2021/09/20 11:12:19;;;;;;;11.00;7.97;;;17.90;99.90;;;;;;4976303;28;20237;-74
2021/09/20 11:14:51;;;;;;;10.35;7.53;;;18.00;99.90;;;;;;4976390;28;20226;-74
2021/09/20 11:17:21;;;;;;;11.47;7.90;;;18.20;99.90;;;;;;4976254;28;20298;-74
2021/09/20 11:19:49;;;;;;;9.10;6.78;;;18.20;99.90;;;;;;4976294;28;20798;-74
2021/09/20 11:22:25;;;;;;;11.23;7.55;;;18.30;99.90;;;;;;4975926;28;20213;-74
2021/09/20 11:24:54;;;;;;;14.02;8.70;;;18.40;99.90;;;;;;4976413;28;20225;-74
2021/09/20 11:27:27;;;;;;;12.93;7.75;;;18.40;99.90;;;;;;4975179;28;20202;-74
2021/09/20 11:29:57;;;;;;;13.43;8.43;;;18.40;99.90;;;;;;4976112;28;20214;-74
2021/09/20 11:32:24;;;;;;;11.98;8.10;;;18.30;99.90;;;;;;4975542;28;20669;-75
2021/09/20 11:34:53;;;;;;;10.05;7.45;;;18.20;99.90;;;;;;4975735;28;20228;-74
2021/09/20 11:37:23;;;;;;;11.10;7.50;;;18.20;99.90;;;;;;4975951;28;20211;-74
2021/09/20 11:39:52;;;;;;;10.70;7.43;;;18.20;99.90;;;;;;4975927;28;20265;-74
2021/09/20 11:42:21;;;;;;;11.88;8.18;;;18.20;99.90;;;;;;4975553;28;20301;-74
2021/09/20 11:44:50;;;;;;;12.23;8.48;;;18.10;99.90;;;;;;4976098;28;20747;-75
2021/09/20 11:47:21;;;;;;;11.73;8.02;;;18.00;99.90;;;;;;4975782;28;20299;-75
2021/09/20 11:49:50;;;;;;;10.90;7.93;;;18.20;99.90;;;;;;4975777;28;20237;-74
2021/09/20 11:52:30;;;;;;;9.95;7.05;;;18.30;99.90;;;;;;4975221;28;20804;-74
2021/09/20 11:54:57;;;;;;;9.02;7.10;;;18.60;99.90;;;;;;4975661;28;20230;-74
2021/09/20 11:57:26;;;;;;;11.63;7.67;;;18.80;99.90;;;;;;4975497;28;20302;-74
2021/09/20 11:59:57;;;;;;;11.93;8.60;;;18.70;99.90;;;;;;4975561;28;20883;-74
2021/09/20 12:02:30;;;;;;;9.13;7.30;;;18.90;99.90;;;;;;4975390;28;20457;-74
2021/09/20 12:04:57;;;;;;;10.60;7.90;;;19.00;99.90;;;;;;4975371;28;20493;-74
2021/09/20 12:07:28;;;;;;;10.10;7.90;;;19.00;99.90;;;;;;4975417;28;20445;-74
2021/09/20 12:09:56;;;;;;;9.97;7.30;;;19.10;99.90;;;;;;4975317;28;20937;-75
2021/09/20 12:12:27;;;;;;;11.03;8.27;;;19.10;99.90;;;;;;4975220;28;20444;-74
2021/09/20 12:15:01;;;;;;;9.47;6.80;;;19.10;99.90;;;;;;4975355;28;20482;-74
2021/09/20 12:17:52;;;;;;;9.13;6.63;;;19.40;99.90;;;;;;4975011;28;20452;-74
2021/09/20 12:20:21;;;;;;;9.33;7.40;;;19.40;99.90;;;;;;4975214;28;20801;-74
2021/09/20 12:22:50;;;;;;;9.33;6.90;;;19.50;99.90;;;;;;4975054;28;20808;-74
2021/09/20 12:25:28;;;;;;;10.57;7.70;;;19.20;99.90;;;;;;4974763;28;20976;-74
2021/09/20 12:27:57;;;;;;;9.30;6.40;;;19.30;99.90;;;;;;4975170;28;20446;-74
2021/09/20 12:30:25;;;;;;;9.50;7.10;;;19.20;99.90;;;;;;4975051;28;20552;-74
2021/09/20 12:33:08;;;;;;;10.13;7.23;;;19.10;99.90;;;;;;4974517;28;20463;-74
2021/09/20 12:35:36;;;;;;;9.03;6.90;;;18.80;99.90;;;;;;4975027;28;20803;-74
2021/09/20 12:38:36;;;;;;;9.23;6.32;;;18.70;99.90;;;;;;4974593;28;20445;-74
2021/09/20 12:41:13;;;;;;;10.70;6.53;;;18.70;99.90;;;;;;4915476;29;20621;-75
2021/09/20 12:43:41;;;;;;;8.55;6.72;;;18.70;99.90;;;;;;4915335;29;20228;-74
2021/09/20 12:46:14;;;;;;;7.70;6.25;;;18.70;99.90;;;;;;4945718;28;20704;-74
2021/09/20 12:48:44;;;;;;;9.33;6.27;;;18.80;99.90;;;;;;4974884;28;20621;-74
2021/09/20 12:51:14;;;;;;;8.20;6.10;;;19.00;99.90;;;;;;4974542;28;20451;-74
2021/09/20 12:53:43;;;;;;;8.50;6.40;;;19.20;99.90;;;;;;4974602;28;20475;-74